createdAt,value
2022-08-14T00:00:59.187Z,99.99
2022-08-14T00:01:59.324Z,99.99
2022-08-14T00:02:59.159Z,99.99
2022-08-14T00:03:59.137Z,99.99
2022-08-14T00:04:59.129Z,99.99
2022-08-14T00:06:00.197Z,99.99
2022-08-14T00:06:59.115Z,99.99
2022-08-14T00:07:59.094Z,99.99
2022-08-14T00:08:59.574Z,99.99
2022-08-14T00:10:49.129Z,99.99
2022-08-14T00:11:00.056Z,99.99
2022-08-14T00:11:59.094Z,99.99
2022-08-14T00:12:59.168Z,99.99
2022-08-14T00:13:59.048Z,99.99
2022-08-14T00:14:59.082Z,99.99
2022-08-14T00:15:59.009Z,99.99
2022-08-14T00:16:59.046Z,99.99
2022-08-14T00:17:58.991Z,99.99
2022-08-14T00:19:06.113Z,99.99
2022-08-14T00:19:59.967Z,99.99
2022-08-14T00:20:59.038Z,99.99
2022-08-14T00:21:59.002Z,99.99
2022-08-14T00:22:58.945Z,99.99
2022-08-14T00:24:01.708Z,99.99
2022-08-14T00:24:58.988Z,99.99
2022-08-14T00:26:06.698Z,99.99
2022-08-14T00:27:02.092Z,99.99
2022-08-14T00:27:58.903Z,99.99
2022-08-14T00:28:58.888Z,99.99
2022-08-14T00:29:58.937Z,99.99
2022-08-14T00:30:58.867Z,99.99
2022-08-14T00:31:58.872Z,99.99
2022-08-14T00:32:58.887Z,99.99
2022-08-14T00:33:58.913Z,99.99
2022-08-14T00:34:59.848Z,99.99
2022-08-14T00:36:37.264Z,99.99
2022-08-14T00:36:59.805Z,99.99
2022-08-14T00:37:58.795Z,99.99
2022-08-14T00:38:58.812Z,99.99
2022-08-14T00:39:58.816Z,99.99
2022-08-14T00:40:58.758Z,99.99
2022-08-14T00:41:58.799Z,99.99
2022-08-14T00:42:58.774Z,99.99
2022-08-14T00:43:58.726Z,99.99
2022-08-14T00:44:58.757Z,99.99
2022-08-14T00:45:58.718Z,99.99
2022-08-14T00:46:58.938Z,99.99
2022-08-14T00:47:59.816Z,99.99
2022-08-14T00:48:58.685Z,99.99
2022-08-14T00:49:58.694Z,99.99
2022-08-14T00:50:58.689Z,99.99
2022-08-14T00:51:58.643Z,99.99
2022-08-14T00:52:58.643Z,99.99
2022-08-14T00:53:58.627Z,99.99
2022-08-14T00:54:58.655Z,99.99
2022-08-14T00:55:58.604Z,99.99
2022-08-14T00:56:58.598Z,99.99
2022-08-14T00:57:58.573Z,99.99
2022-08-14T00:58:58.585Z,99.99
2022-08-14T00:59:58.541Z,99.99
2022-08-14T01:00:58.635Z,99.99
2022-08-14T01:01:58.723Z,99.99
2022-08-14T01:02:58.808Z,99.99
2022-08-14T01:03:58.526Z,99.99
2022-08-14T01:04:58.533Z,99.99
2022-08-14T01:05:58.519Z,99.99
2022-08-14T01:06:58.529Z,99.99
2022-08-14T01:07:58.485Z,99.99
2022-08-14T01:08:59.515Z,99.99
2022-08-14T01:09:58.446Z,99.99
2022-08-14T01:10:58.488Z,99.99
2022-08-14T01:12:03.141Z,99.99
2022-08-14T01:12:59.556Z,99.99
2022-08-14T01:14:01.386Z,99.99
2022-08-14T01:14:59.535Z,99.99
2022-08-14T01:16:02.764Z,99.99
2022-08-14T01:16:58.365Z,99.99
2022-08-14T01:17:58.366Z,99.99
2022-08-14T01:19:02.122Z,99.99
2022-08-14T01:19:58.336Z,99.99
2022-08-14T01:20:58.341Z,99.99
2022-08-14T01:21:58.312Z,99.99
2022-08-14T01:22:58.319Z,99.99
2022-08-14T01:23:58.297Z,99.99
2022-08-14T01:24:58.304Z,99.99
2022-08-14T01:25:58.290Z,99.99
2022-08-14T01:26:58.259Z,99.99
2022-08-14T01:27:58.260Z,99.99
2022-08-14T01:28:58.244Z,99.99
2022-08-14T01:30:03.610Z,99.99
2022-08-14T01:30:59.231Z,99.99
2022-08-14T01:31:58.219Z,99.99
2022-08-14T01:32:58.204Z,99.99
2022-08-14T01:34:00.472Z,99.99
2022-08-14T01:35:18.699Z,99.99
2022-08-14T01:36:04.985Z,99.99
2022-08-14T01:36:59.167Z,99.99
2022-08-14T01:37:58.156Z,99.99
2022-08-14T01:38:58.433Z,99.99
2022-08-14T01:39:58.180Z,99.99
2022-08-14T01:40:58.113Z,99.99
2022-08-14T01:41:58.560Z,99.99
2022-08-14T01:42:58.091Z,99.99
2022-08-14T01:43:58.110Z,99.99
2022-08-14T01:44:58.093Z,99.99
2022-08-14T01:46:06.279Z,99.99
2022-08-14T01:47:01.239Z,99.99
2022-08-14T01:48:03.546Z,99.99
2022-08-14T01:48:59.035Z,99.99
2022-08-14T01:49:59.677Z,99.99
2022-08-14T01:50:58.026Z,99.99
2022-08-14T01:51:58.010Z,99.99
2022-08-14T01:53:00.508Z,99.99
2022-08-14T01:53:57.974Z,99.99
2022-08-14T01:54:58.615Z,99.99
2022-08-14T01:55:57.991Z,99.99
2022-08-14T01:56:57.949Z,99.99
2022-08-14T01:58:01.406Z,99.99
2022-08-14T01:58:58.941Z,99.99
2022-08-14T01:59:57.915Z,99.99
2022-08-14T02:00:57.909Z,99.99
2022-08-14T02:01:59.303Z,99.99
2022-08-14T02:02:57.892Z,99.99
2022-08-14T02:03:57.886Z,99.99
2022-08-14T02:04:57.964Z,99.99
2022-08-14T02:05:57.851Z,99.99
2022-08-14T02:06:57.839Z,99.99
2022-08-14T02:08:09.471Z,99.99
2022-08-14T02:08:58.822Z,99.99
2022-08-14T02:09:57.807Z,99.99
2022-08-14T02:10:57.798Z,99.99
2022-08-14T02:11:57.790Z,99.99
2022-08-14T02:12:59.448Z,99.99
2022-08-14T02:13:57.787Z,99.99
2022-08-14T02:15:00.577Z,99.99
2022-08-14T02:15:57.741Z,99.99
2022-08-14T02:16:57.736Z,99.99
2022-08-14T02:17:57.727Z,99.99
2022-08-14T02:18:58.091Z,99.99
2022-08-14T02:19:57.721Z,99.99
2022-08-14T02:20:57.695Z,99.99
2022-08-14T02:21:57.684Z,99.99
2022-08-14T02:22:58.669Z,99.99
2022-08-14T02:23:57.658Z,99.99
2022-08-14T02:24:57.662Z,99.99
2022-08-14T02:25:57.665Z,99.99
2022-08-14T02:28:19.002Z,99.99
2022-08-14T02:28:21.991Z,99.99
2022-08-14T02:28:59.723Z,99.99
2022-08-14T02:30:00.816Z,99.99
2022-08-14T02:30:57.607Z,99.99
2022-08-14T02:31:57.607Z,99.99
2022-08-14T02:32:57.562Z,99.99
2022-08-14T02:33:57.550Z,99.99
2022-08-14T02:34:57.547Z,99.99
2022-08-14T02:36:05.120Z,99.99
2022-08-14T02:37:05.157Z,99.99
2022-08-14T02:37:58.521Z,99.99
2022-08-14T02:38:57.494Z,99.99
2022-08-14T02:39:57.536Z,99.99
2022-08-14T02:40:57.513Z,99.99
2022-08-14T02:41:57.937Z,99.99
2022-08-14T02:42:57.832Z,99.99
2022-08-14T02:44:00.951Z,99.99
2022-08-14T02:44:57.439Z,99.99
2022-08-14T02:45:57.418Z,99.99
2022-08-14T02:47:01.182Z,99.99
2022-08-14T02:47:57.596Z,99.99
2022-08-14T02:49:03.871Z,99.99
2022-08-14T02:49:58.394Z,99.99
2022-08-14T02:50:57.364Z,99.99
2022-08-14T02:51:57.369Z,99.99
2022-08-14T02:53:03.069Z,99.99
2022-08-14T02:53:58.336Z,99.99
2022-08-14T02:54:57.327Z,99.99
2022-08-14T02:56:03.020Z,99.99
2022-08-14T02:57:14.049Z,99.99
2022-08-14T02:58:03.047Z,99.99
2022-08-14T02:59:00.399Z,99.99
2022-08-14T02:59:57.274Z,99.99
2022-08-14T03:00:57.403Z,99.99
2022-08-14T03:01:57.398Z,99.99
2022-08-14T03:02:59.375Z,99.99
2022-08-14T03:03:57.232Z,99.99
2022-08-14T03:04:57.226Z,99.99
2022-08-14T03:05:57.216Z,99.99
2022-08-14T03:07:07.184Z,99.99
2022-08-14T03:07:58.220Z,99.99
2022-08-14T03:08:57.175Z,99.99
2022-08-14T03:10:25.865Z,99.99
2022-08-14T03:10:58.153Z,99.99
2022-08-14T03:11:57.164Z,99.99
2022-08-14T03:12:57.133Z,99.99
2022-08-14T03:13:59.486Z,99.99
2022-08-14T03:14:57.134Z,99.99
2022-08-14T03:15:57.985Z,99.99
2022-08-14T03:16:57.093Z,99.99
2022-08-14T03:17:58.590Z,99.99
2022-08-14T03:18:57.073Z,99.99
2022-08-14T03:19:57.073Z,99.91
2022-08-14T03:20:57.074Z,99.41
2022-08-14T03:21:57.045Z,99.82
2022-08-14T03:22:57.029Z,99.41
2022-08-14T03:23:57.044Z,99.52
2022-08-14T03:24:57.041Z,99.91
2022-08-14T03:25:57.004Z,99.62
2022-08-14T03:26:57.762Z,99.82
2022-08-14T03:27:58.435Z,99.62
2022-08-14T03:28:56.972Z,99.82
2022-08-14T03:29:56.965Z,99.62
2022-08-14T03:30:56.962Z,99.62
2022-08-14T03:31:56.942Z,99.62
2022-08-14T03:32:56.945Z,99.62
2022-08-14T03:33:56.940Z,99.41
2022-08-14T03:34:58.490Z,99.62
2022-08-14T03:36:05.488Z,99.52
2022-08-14T03:37:51.346Z,99.71
2022-08-14T03:39:12.463Z,99.82
2022-08-14T03:39:13.384Z,99.99
2022-08-14T03:39:57.894Z,99.91
2022-08-14T03:40:56.841Z,99.99
2022-08-14T03:41:59.920Z,99.99
2022-08-14T03:42:57.829Z,99.99
2022-08-14T03:44:00.825Z,99.99
2022-08-14T03:45:26.592Z,99.99
2022-08-14T03:45:57.792Z,99.99
2022-08-14T03:46:56.797Z,99.99
2022-08-14T03:47:58.852Z,99.99
2022-08-14T03:48:57.790Z,99.99
2022-08-14T03:49:58.249Z,99.99
2022-08-14T03:50:56.756Z,99.99
2022-08-14T03:51:57.442Z,99.99
2022-08-14T03:52:57.525Z,99.99
2022-08-14T03:53:56.711Z,99.99
2022-08-14T03:54:56.710Z,99.99
2022-08-14T03:55:56.683Z,99.99
2022-08-14T03:56:56.693Z,99.99
2022-08-14T03:57:56.662Z,99.99
2022-08-14T03:58:56.657Z,99.99
2022-08-14T03:59:56.650Z,99.99
2022-08-14T04:00:56.709Z,99.99
2022-08-14T04:02:01.650Z,99.99
2022-08-14T04:02:57.627Z,99.99
2022-08-14T04:03:56.606Z,99.99
2022-08-14T04:04:56.594Z,99.99
2022-08-14T04:05:57.587Z,99.99
2022-08-14T04:06:58.838Z,99.99
2022-08-14T04:08:08.399Z,99.99
2022-08-14T04:08:58.079Z,99.99
2022-08-14T04:09:56.544Z,99.99
2022-08-14T04:10:56.531Z,99.99
2022-08-14T04:11:57.950Z,99.99
2022-08-14T04:12:56.511Z,99.99
2022-08-14T04:13:57.505Z,99.99
2022-08-14T04:14:56.510Z,99.99
2022-08-14T04:16:02.439Z,99.99
2022-08-14T04:16:57.465Z,99.99
2022-08-14T04:17:56.449Z,99.99
2022-08-14T04:18:56.449Z,99.99
2022-08-14T04:19:56.438Z,99.99
2022-08-14T04:20:56.437Z,99.99
2022-08-14T04:22:03.625Z,99.99
2022-08-14T04:22:57.397Z,99.99
2022-08-14T04:23:57.435Z,99.99
2022-08-14T04:24:56.385Z,99.99
2022-08-14T04:25:56.377Z,99.99
2022-08-14T04:26:56.379Z,99.99
2022-08-14T04:28:02.218Z,99.99
2022-08-14T04:29:07.107Z,99.99
2022-08-14T04:29:57.334Z,99.99
2022-08-14T04:30:56.323Z,99.99
2022-08-14T04:33:00.066Z,99.99
2022-08-14T04:33:05.349Z,99.99
2022-08-14T04:33:57.286Z,99.99
2022-08-14T04:34:56.281Z,99.99
2022-08-14T04:35:57.231Z,99.99
2022-08-14T04:36:56.254Z,99.72
2022-08-14T04:37:56.265Z,99.99
2022-08-14T04:38:56.250Z,99.57
2022-08-14T04:39:57.168Z,99.82
2022-08-14T04:40:56.211Z,99.67
2022-08-14T04:41:56.202Z,99.82
2022-08-14T04:42:56.189Z,99.52
2022-08-14T04:43:56.191Z,99.92
2022-08-14T04:45:01.000Z,99.72
2022-08-14T04:45:57.185Z,99.42
2022-08-14T04:46:57.751Z,99.62
2022-08-14T04:47:56.148Z,99.72
2022-08-14T04:48:59.787Z,99.82
2022-08-14T04:49:56.975Z,99.99
2022-08-14T04:50:56.130Z,99.92
2022-08-14T04:51:56.465Z,99.68
2022-08-14T04:52:56.095Z,99.99
2022-08-14T04:53:56.081Z,99.77
2022-08-14T04:54:56.083Z,99.37
2022-08-14T04:55:56.065Z,99.77
2022-08-14T04:56:56.063Z,99.57
2022-08-14T04:57:56.042Z,99.68
2022-08-14T04:58:56.039Z,99.48
2022-08-14T04:59:56.018Z,98.93
2022-08-14T05:00:56.004Z,98.82
2022-08-14T05:01:57.286Z,98.93
2022-08-14T05:02:55.995Z,98.52
2022-08-14T05:03:55.999Z,98.72
2022-08-14T05:04:57.439Z,98.52
2022-08-14T05:05:55.958Z,98.08
2022-08-14T05:06:55.937Z,98.28
2022-08-14T05:08:01.656Z,97.78
2022-08-14T05:09:00.056Z,98.18
2022-08-14T05:09:55.913Z,97.52
2022-08-14T05:10:55.911Z,97.17
2022-08-14T05:11:55.891Z,97.08
2022-08-14T05:13:21.148Z,96.77
2022-08-14T05:14:17.063Z,96.88
2022-08-14T05:14:56.959Z,96.93
2022-08-14T05:15:55.849Z,97.03
2022-08-14T05:16:55.838Z,96.73
2022-08-14T05:18:03.536Z,96.63
2022-08-14T05:19:26.646Z,96.03
2022-08-14T05:21:04.236Z,96.13
2022-08-14T05:21:56.461Z,96.18
2022-08-14T05:22:01.272Z,95.62
2022-08-14T05:22:56.773Z,96.28
2022-08-14T05:23:55.757Z,95.18
2022-08-14T05:24:55.904Z,95.58
2022-08-14T05:25:55.745Z,95.84
2022-08-14T05:27:04.391Z,95.04
2022-08-14T05:27:55.796Z,94.69
2022-08-14T05:28:55.736Z,94.45
2022-08-14T05:30:04.452Z,93.65
2022-08-14T05:30:55.733Z,93.35
2022-08-14T05:31:57.265Z,92.40
2022-08-14T05:32:55.708Z,92.40
2022-08-14T05:33:56.805Z,91.76
2022-08-14T05:34:55.697Z,92.76
2022-08-14T05:35:55.666Z,91.06
2022-08-14T05:36:58.965Z,91.22
2022-08-14T05:37:56.640Z,92.37
2022-08-14T05:38:55.600Z,91.77
2022-08-14T05:39:55.682Z,90.88
2022-08-14T05:40:55.701Z,90.23
2022-08-14T05:41:55.600Z,89.73
2022-08-14T05:42:55.624Z,90.29
2022-08-14T05:43:55.558Z,90.34
2022-08-14T05:44:56.074Z,89.65
2022-08-14T05:45:55.547Z,89.35
2022-08-14T05:46:55.535Z,89.35
2022-08-14T05:47:55.513Z,88.25
2022-08-14T05:48:55.518Z,88.95
2022-08-14T05:49:55.484Z,87.35
2022-08-14T05:50:55.478Z,85.96
2022-08-14T05:51:55.463Z,84.97
2022-08-14T05:52:55.722Z,85.02
2022-08-14T05:54:00.167Z,84.43
2022-08-14T05:54:56.441Z,84.69
2022-08-14T05:55:55.422Z,84.29
2022-08-14T05:56:55.429Z,84.39
2022-08-14T05:57:57.791Z,84.05
2022-08-14T05:58:55.405Z,84.05
2022-08-14T05:59:55.397Z,84.45
2022-08-14T06:00:55.379Z,82.76
2022-08-14T06:01:55.397Z,83.35
2022-08-14T06:02:55.369Z,83.79
2022-08-14T06:03:55.342Z,83.59
2022-08-14T06:04:55.326Z,84.58
2022-08-14T06:05:55.349Z,84.78
2022-08-14T06:06:55.308Z,85.08
2022-08-14T06:07:55.301Z,84.29
2022-08-14T06:08:55.295Z,84.69
2022-08-14T06:09:55.280Z,84.29
2022-08-14T06:10:55.270Z,84.99
2022-08-14T06:11:55.282Z,84.69
2022-08-14T06:12:57.052Z,84.78
2022-08-14T06:13:55.237Z,84.92
2022-08-14T06:14:55.230Z,85.92
2022-08-14T06:15:55.226Z,85.88
2022-08-14T06:16:55.209Z,85.98
2022-08-14T06:17:59.300Z,85.48
2022-08-14T06:18:55.192Z,85.38
2022-08-14T06:19:55.169Z,84.29
2022-08-14T06:20:55.163Z,84.29
2022-08-14T06:21:59.217Z,82.70
2022-08-14T06:22:55.146Z,83.99
2022-08-14T06:23:55.146Z,84.34
2022-08-14T06:24:55.116Z,86.10
2022-08-14T06:25:55.115Z,86.19
2022-08-14T06:26:56.776Z,86.19
2022-08-14T06:27:56.086Z,83.11
2022-08-14T06:28:55.082Z,84.50
2022-08-14T06:29:55.113Z,84.20
2022-08-14T06:30:55.059Z,82.42
2022-08-14T06:32:00.569Z,82.97
2022-08-14T06:32:56.453Z,83.27
2022-08-14T06:35:02.915Z,83.11
2022-08-14T06:35:03.877Z,82.87
2022-08-14T06:35:56.008Z,81.82
2022-08-14T06:36:55.002Z,81.72
2022-08-14T06:37:55.016Z,82.38
2022-08-14T06:38:54.969Z,81.58
2022-08-14T06:39:55.026Z,82.08
2022-08-14T06:40:54.960Z,82.28
2022-08-14T06:41:58.623Z,82.18
2022-08-14T06:42:54.936Z,82.38
2022-08-14T06:43:54.924Z,81.98
2022-08-14T06:44:54.914Z,79.99
2022-08-14T06:45:54.901Z,80.09
2022-08-14T06:46:54.893Z,79.30
2022-08-14T06:47:54.889Z,79.30
2022-08-14T06:48:54.880Z,79.90
2022-08-14T06:49:58.126Z,80.29
2022-08-14T06:50:54.890Z,80.88
2022-08-14T06:51:54.836Z,81.68
2022-08-14T06:52:54.831Z,81.05
2022-08-14T06:53:54.849Z,81.30
2022-08-14T06:54:54.804Z,80.61
2022-08-14T06:56:00.699Z,80.37
2022-08-14T06:56:57.097Z,79.78
2022-08-14T06:57:54.770Z,78.49
2022-08-14T06:58:54.771Z,78.99
2022-08-14T06:59:54.776Z,78.75
2022-08-14T07:00:54.782Z,79.74
2022-08-14T07:01:56.542Z,79.35
2022-08-14T07:02:54.725Z,78.61
2022-08-14T07:03:54.714Z,77.46
2022-08-14T07:04:54.719Z,77.95
2022-08-14T07:05:55.318Z,78.25
2022-08-14T07:06:58.509Z,77.99
2022-08-14T07:07:54.673Z,79.18
2022-08-14T07:08:54.659Z,78.99
2022-08-14T07:09:54.652Z,77.66
2022-08-14T07:10:54.653Z,77.59
2022-08-14T07:11:56.273Z,77.46
2022-08-14T07:13:03.937Z,77.16
2022-08-14T07:13:55.602Z,76.14
2022-08-14T07:15:01.035Z,77.12
2022-08-14T07:15:55.599Z,77.82
2022-08-14T07:16:54.590Z,77.42
2022-08-14T07:17:54.572Z,79.01
2022-08-14T07:18:54.551Z,77.09
2022-08-14T07:19:54.542Z,77.78
2022-08-14T07:20:54.548Z,77.09
2022-08-14T07:21:54.542Z,74.91
2022-08-14T07:22:56.981Z,74.91
2022-08-14T07:23:54.510Z,75.01
2022-08-14T07:24:54.489Z,74.11
2022-08-14T07:25:54.480Z,74.71
2022-08-14T07:26:54.494Z,73.72
2022-08-14T07:27:54.468Z,73.95
2022-08-14T07:28:54.460Z,73.55
2022-08-14T07:29:54.454Z,74.44
2022-08-14T07:30:54.442Z,74.31
2022-08-14T07:31:54.423Z,73.72
2022-08-14T07:32:54.429Z,73.42
2022-08-14T07:33:54.403Z,73.72
2022-08-14T07:34:54.391Z,74.02
2022-08-14T07:35:58.622Z,73.78
2022-08-14T07:37:00.740Z,72.39
2022-08-14T07:37:55.375Z,73.28
2022-08-14T07:38:54.361Z,73.78
2022-08-14T07:39:54.402Z,73.19
2022-08-14T07:40:54.329Z,73.19
2022-08-14T07:41:54.339Z,73.49
2022-08-14T07:42:54.330Z,73.09
2022-08-14T07:43:55.802Z,72.86
2022-08-14T07:44:54.306Z,71.37
2022-08-14T07:45:54.290Z,73.15
2022-08-14T07:46:54.277Z,71.34
2022-08-14T07:47:54.277Z,71.63
2022-08-14T07:48:54.258Z,71.53
2022-08-14T07:49:55.541Z,70.25
2022-08-14T07:50:59.495Z,68.66
2022-08-14T07:51:55.229Z,68.66
2022-08-14T07:52:54.209Z,68.37
2022-08-14T07:53:57.116Z,69.06
2022-08-14T07:54:54.211Z,68.43
2022-08-14T07:56:00.263Z,67.54
2022-08-14T07:56:56.799Z,68.10
2022-08-14T07:57:54.170Z,67.51
2022-08-14T07:58:54.151Z,67.21
2022-08-14T07:59:54.147Z,68.70
2022-08-14T08:00:56.394Z,67.11
2022-08-14T08:01:54.132Z,66.82
2022-08-14T08:02:55.831Z,66.52
2022-08-14T08:03:57.349Z,66.36
2022-08-14T08:04:59.263Z,67.05
2022-08-14T08:05:54.094Z,67.05
2022-08-14T08:06:54.087Z,66.85
2022-08-14T08:07:54.067Z,66.65
2022-08-14T08:09:01.494Z,65.37
2022-08-14T08:09:55.056Z,65.86
2022-08-14T08:11:03.097Z,67.14
2022-08-14T08:11:57.333Z,67.61
2022-08-14T08:12:54.011Z,67.41
2022-08-14T08:13:54.484Z,67.38
2022-08-14T08:14:55.674Z,67.97
2022-08-14T08:15:53.995Z,68.27
2022-08-14T08:16:53.971Z,68.37
2022-08-14T08:18:01.134Z,68.66
2022-08-14T08:18:59.244Z,68.76
2022-08-14T08:19:54.932Z,69.92
2022-08-14T08:20:53.938Z,66.56
2022-08-14T08:21:54.916Z,66.46
2022-08-14T08:22:55.869Z,66.06
2022-08-14T08:23:53.899Z,67.61
2022-08-14T08:24:53.882Z,67.22
2022-08-14T08:25:53.868Z,69.16
2022-08-14T08:26:53.877Z,67.97
2022-08-14T08:27:53.856Z,66.69
2022-08-14T08:28:53.844Z,66.99
2022-08-14T08:29:53.873Z,66.46
2022-08-14T08:30:53.853Z,67.05
2022-08-14T08:31:53.824Z,66.56
2022-08-14T08:32:53.795Z,65.77
2022-08-14T08:33:53.790Z,66.46
2022-08-14T08:34:53.780Z,66.46
2022-08-14T08:35:53.769Z,65.97
2022-08-14T08:36:53.770Z,66.99
2022-08-14T08:38:01.386Z,66.00
2022-08-14T08:39:18.665Z,66.49
2022-08-14T08:40:03.248Z,65.21
2022-08-14T08:40:54.839Z,65.11
2022-08-14T08:41:54.726Z,66.89
2022-08-14T08:42:53.714Z,65.77
2022-08-14T08:43:53.695Z,64.42
2022-08-14T08:44:53.673Z,63.14
2022-08-14T08:45:53.674Z,64.09
2022-08-14T08:46:53.653Z,65.97
2022-08-14T08:47:53.661Z,65.87
2022-08-14T08:49:23.167Z,63.90
2022-08-14T08:50:31.780Z,64.69
2022-08-14T08:51:23.046Z,64.36
2022-08-14T08:52:24.933Z,65.34
2022-08-14T08:53:23.010Z,63.11
2022-08-14T08:54:26.616Z,62.41
2022-08-14T08:55:24.000Z,62.41
2022-08-14T08:56:30.315Z,62.91
2022-08-14T08:57:24.046Z,63.28
2022-08-14T08:58:25.419Z,63.28
2022-08-14T08:59:31.041Z,60.02
2022-08-14T09:00:25.492Z,60.61
2022-08-14T09:01:22.965Z,61.33
2022-08-14T09:02:22.929Z,61.63
2022-08-14T09:03:22.919Z,63.31
2022-08-14T09:04:22.892Z,62.19
2022-08-14T09:05:22.963Z,62.85
2022-08-14T09:07:01.451Z,62.36
2022-08-14T09:07:23.855Z,63.93
2022-08-14T09:08:30.893Z,63.81
2022-08-14T09:09:23.848Z,62.13
2022-08-14T09:10:22.831Z,62.40
2022-08-14T09:11:22.833Z,62.40
2022-08-14T09:12:22.838Z,63.28
2022-08-14T09:13:22.816Z,60.72
2022-08-14T09:14:22.800Z,62.49
2022-08-14T09:15:22.789Z,61.41
2022-08-14T09:16:23.535Z,59.57
2022-08-14T09:17:25.963Z,61.15
2022-08-14T09:18:22.807Z,60.75
2022-08-14T09:19:22.740Z,62.20
2022-08-14T09:20:29.395Z,61.90
2022-08-14T09:21:23.996Z,59.84
2022-08-14T09:22:35.603Z,60.03
2022-08-14T09:23:27.325Z,60.50
2022-08-14T09:24:29.133Z,59.81
2022-08-14T09:26:01.397Z,59.71
2022-08-14T09:26:23.657Z,59.28
2022-08-14T09:27:23.691Z,58.14
2022-08-14T09:28:22.656Z,58.16
2022-08-14T09:29:23.515Z,57.57
2022-08-14T09:30:32.461Z,59.74
2022-08-14T09:31:23.653Z,61.18
2022-08-14T09:32:57.833Z,62.27
2022-08-14T09:33:23.600Z,60.66
2022-08-14T09:34:27.896Z,56.43
2022-08-14T09:35:23.602Z,57.91
2022-08-14T09:36:22.575Z,56.53
2022-08-14T09:37:22.546Z,58.01
2022-08-14T09:38:26.178Z,56.07
2022-08-14T09:39:23.602Z,56.27
2022-08-14T09:40:22.657Z,58.72
2022-08-14T09:41:22.558Z,60.10
2022-08-14T09:42:32.931Z,58.23
2022-08-14T09:43:23.525Z,59.51
2022-08-14T09:44:22.552Z,57.18
2022-08-14T09:45:22.502Z,57.45
2022-08-14T09:46:25.803Z,57.57
2022-08-14T09:47:22.449Z,59.44
2022-08-14T09:48:30.253Z,59.31
2022-08-14T09:49:23.490Z,59.71
2022-08-14T09:50:25.717Z,59.88
2022-08-14T09:51:22.464Z,58.40
2022-08-14T09:52:32.721Z,58.50
2022-08-14T09:53:23.379Z,59.88
2022-08-14T09:54:23.993Z,57.35
2022-08-14T09:55:22.350Z,58.75
2022-08-14T09:56:30.479Z,59.84
2022-08-14T09:57:23.338Z,60.00
2022-08-14T09:58:23.146Z,59.31
2022-08-14T09:59:22.312Z,57.12
2022-08-14T10:00:30.268Z,56.43
2022-08-14T10:01:24.783Z,57.22
2022-08-14T10:02:22.368Z,57.39
2022-08-14T10:03:22.276Z,57.86
2022-08-14T10:04:34.355Z,58.15
2022-08-14T10:05:23.265Z,56.94
2022-08-14T10:06:22.240Z,56.35
2022-08-14T10:07:22.232Z,56.32
2022-08-14T10:08:26.164Z,55.64
2022-08-14T10:09:22.204Z,56.03
2022-08-14T10:10:23.628Z,56.32
2022-08-14T10:11:23.568Z,55.35
2022-08-14T10:12:28.720Z,54.95
2022-08-14T10:13:23.647Z,55.15
2022-08-14T10:14:35.154Z,55.27
2022-08-14T10:15:23.204Z,55.66
2022-08-14T10:16:27.622Z,56.06
2022-08-14T10:17:23.122Z,55.08
2022-08-14T10:18:22.123Z,54.19
2022-08-14T10:19:22.122Z,55.20
2022-08-14T10:20:40.658Z,54.29
2022-08-14T10:21:23.090Z,53.50
2022-08-14T10:23:14.934Z,54.39
2022-08-14T10:23:23.417Z,54.68
2022-08-14T10:24:22.055Z,53.50
2022-08-14T10:25:22.635Z,53.50
2022-08-14T10:26:23.148Z,54.22
2022-08-14T10:27:23.038Z,55.96
2022-08-14T10:28:39.236Z,53.50
2022-08-14T10:29:23.689Z,51.72
2022-08-14T10:30:22.602Z,52.62
2022-08-14T10:31:25.418Z,52.50
2022-08-14T10:32:29.035Z,52.69
2022-08-14T10:33:22.980Z,52.80
2022-08-14T10:34:29.050Z,52.11
2022-08-14T10:35:23.155Z,52.69
2022-08-14T10:36:34.940Z,52.50
2022-08-14T10:37:23.762Z,51.91
2022-08-14T10:38:22.925Z,53.28
2022-08-14T10:39:21.956Z,54.83
2022-08-14T10:40:44.290Z,54.21
2022-08-14T10:41:22.886Z,53.43
2022-08-14T10:42:22.869Z,53.53
2022-08-14T10:43:23.196Z,50.68
2022-08-14T10:44:22.003Z,51.96
2022-08-14T10:45:22.022Z,51.20
2022-08-14T10:47:40.743Z,51.69
2022-08-14T10:47:41.287Z,51.20
2022-08-14T10:48:24.343Z,52.57
2022-08-14T10:49:23.347Z,52.74
2022-08-14T10:50:21.793Z,53.11
2022-08-14T10:51:21.773Z,50.66
2022-08-14T10:52:21.999Z,49.90
2022-08-14T10:53:21.771Z,51.37
2022-08-14T10:54:35.825Z,50.98
2022-08-14T10:55:22.743Z,49.99
2022-08-14T10:56:34.063Z,50.68
2022-08-14T10:57:22.711Z,53.53
2022-08-14T10:58:21.707Z,49.77
2022-08-14T10:59:21.712Z,50.07
2022-08-14T11:00:29.797Z,50.76
2022-08-14T11:01:22.667Z,51.15
2022-08-14T11:02:35.874Z,52.30
2022-08-14T11:03:36.139Z,51.12
2022-08-14T11:04:26.215Z,51.03
2022-08-14T11:05:21.635Z,51.12
2022-08-14T11:06:21.621Z,52.00
2022-08-14T11:07:21.646Z,51.29
2022-08-14T11:08:21.613Z,50.88
2022-08-14T11:09:21.583Z,49.70
2022-08-14T11:10:21.572Z,48.43
2022-08-14T11:11:21.570Z,48.14
2022-08-14T11:12:39.982Z,47.85
2022-08-14T11:13:24.173Z,49.11
2022-08-14T11:14:22.798Z,49.97
2022-08-14T11:15:21.521Z,48.97
2022-08-14T11:16:21.519Z,48.41
2022-08-14T11:17:21.875Z,49.58
2022-08-14T11:18:30.062Z,48.41
2022-08-14T11:19:24.302Z,49.77
2022-08-14T11:20:21.481Z,48.38
2022-08-14T11:21:21.494Z,47.72
2022-08-14T11:22:52.764Z,49.77
2022-08-14T11:23:22.448Z,50.56
2022-08-14T11:24:50.478Z,48.21
2022-08-14T11:25:22.428Z,49.97
2022-08-14T11:26:21.418Z,49.29
2022-08-14T11:27:23.722Z,48.70
2022-08-14T11:28:48.144Z,48.87
2022-08-14T11:29:22.379Z,48.87
2022-08-14T11:30:51.406Z,48.41
2022-08-14T11:31:22.433Z,47.94
2022-08-14T11:32:29.018Z,48.65
2022-08-14T11:33:21.391Z,49.85
2022-08-14T11:34:31.973Z,48.97
2022-08-14T11:35:21.331Z,49.26
2022-08-14T11:36:21.318Z,50.37
2022-08-14T11:37:33.906Z,49.55
2022-08-14T11:38:22.309Z,49.16
2022-08-14T11:39:33.703Z,50.04
2022-08-14T11:40:24.360Z,50.90
2022-08-14T11:41:22.283Z,49.82
2022-08-14T11:42:57.192Z,49.33
2022-08-14T11:43:29.129Z,49.99
2022-08-14T11:44:45.814Z,49.31
2022-08-14T11:45:23.128Z,49.09
2022-08-14T11:46:30.247Z,48.87
2022-08-14T11:47:22.239Z,47.70
2022-08-14T11:49:04.168Z,45.47
2022-08-14T11:49:22.284Z,45.30
2022-08-14T11:50:33.515Z,46.37
2022-08-14T11:51:24.192Z,47.77
2022-08-14T11:52:21.587Z,47.77
2022-08-14T11:53:21.144Z,48.63
2022-08-14T11:54:33.942Z,47.55
2022-08-14T11:55:25.501Z,48.63
2022-08-14T11:56:25.320Z,46.26
2022-08-14T11:57:22.900Z,45.81
2022-08-14T11:58:24.399Z,46.97
2022-08-14T11:59:26.209Z,47.06
2022-08-14T12:00:22.085Z,46.40
2022-08-14T12:01:22.052Z,45.98
2022-08-14T12:03:01.213Z,47.08
2022-08-14T12:03:27.053Z,45.89
2022-08-14T12:04:33.431Z,46.28
2022-08-14T12:05:22.031Z,46.16
2022-08-14T12:06:28.105Z,45.84
2022-08-14T12:07:22.000Z,45.84
2022-08-14T12:08:24.633Z,45.55
2022-08-14T12:09:22.051Z,47.50
2022-08-14T12:10:26.337Z,46.11
2022-08-14T12:11:21.956Z,45.43
2022-08-14T12:12:35.977Z,45.80
2022-08-14T12:13:22.371Z,45.21
2022-08-14T12:14:34.765Z,44.43
2022-08-14T12:15:21.912Z,43.92
2022-08-14T12:16:22.795Z,43.95
2022-08-14T12:17:23.959Z,43.26
2022-08-14T12:18:20.917Z,43.85
2022-08-14T12:19:20.876Z,45.33
2022-08-14T12:20:29.967Z,43.48
2022-08-14T12:21:21.847Z,44.34
2022-08-14T12:22:29.897Z,43.92
2022-08-14T12:23:21.838Z,41.99
2022-08-14T12:24:35.644Z,42.58
2022-08-14T12:25:21.810Z,43.16
2022-08-14T12:26:39.048Z,42.58
2022-08-14T12:27:25.095Z,43.46
2022-08-14T12:28:26.986Z,42.68
2022-08-14T12:29:21.787Z,42.87
2022-08-14T12:30:21.226Z,44.60
2022-08-14T12:31:20.900Z,43.80
2022-08-14T12:32:20.740Z,44.29
2022-08-14T12:33:20.730Z,42.26
2022-08-14T12:34:24.262Z,42.16
2022-08-14T12:35:20.709Z,43.73
2022-08-14T12:36:20.891Z,43.90
2022-08-14T12:37:20.696Z,44.09
2022-08-14T12:38:21.240Z,44.68
2022-08-14T12:39:21.036Z,43.99
2022-08-14T12:40:21.130Z,41.97
2022-08-14T12:41:21.819Z,42.38
2022-08-14T12:42:27.418Z,43.18
2022-08-14T12:43:21.637Z,43.01
2022-08-14T12:44:20.643Z,43.30
2022-08-14T12:45:20.609Z,43.59
2022-08-14T12:46:22.574Z,44.10
2022-08-14T12:47:21.594Z,43.62
2022-08-14T12:48:31.466Z,43.84
2022-08-14T12:49:21.577Z,42.35
2022-08-14T12:50:20.569Z,43.63
2022-08-14T12:51:21.776Z,42.85
2022-08-14T12:52:30.654Z,43.05
2022-08-14T12:53:22.123Z,42.54